Orupgaard Flyveplads

DK-0024 · 西兰大区, 丹麦

使用的METAR站距离机场74 km。
罗盘
风向 的 风向 的 风向 到 风向 070° Orupgaard Flyveplads 7/25
风: 7 kt, 3 beaufort

7 kt

改变
0 ft 1.000 2.000 3.000 4.000 5.000
未检测到零云
METAR EKRS 032250Z AUTO 07007KT 030V120 9000 NCD 04/04 Q1010

METAR Orupgaard Flyveplads - DK-0024

Orupgaard Flyveplads是,丹麦中的小机场。 该机场位于纬度54,76887和经度11,94843。 该机场有一条跑道: 7/25. 这个机场没有ICAO代码,我们使用DK-0024作为参考。 机场在Kobenhavn FIR中。

该航空气象观测是针对Ringsted Airfield在2024年3月3日 23:50, 当地时间进行的。

机场观察

风向为070°,速度为7 kt。 风向在030°和120°之间变化。

可见度为9 km。

有未检测到零云。 没有观察到天花板。

温度为4 °C,阵风为-1 °C。 露点为4 °C,相对湿度为100%。 海平面上的气压为1010 hPa (QNH)。

白天

今天,太阳从06:55升起,在17:52降落。 这适用于Orupgaard Flyveplads,世界夏令时可能有所不同。 当地时间与世界标准时间之间的时差为+1 小时。 当前,没有夏令时有效。

公司介绍

我们没有关于这个机场的公司信息。

体会

到Vliegles.nl去找飞行课程,跳伞和其他飞行体验。 浏览页面,了解Orupgaard Flyveplads附近所有可用的活动。 你也可以使用搜索功能来寻找你所在地附近的特定飞行课程、跳伞或其他飞行体验。

跑道

Id 标题 侧风 逆风 侧风 %
7/25 071°-251° 7 kt 2 %

逆风成分最大的方向会被突出显示,并用于横风计算。 这并不一定意味着这个方向在使用。

乌云

- NCD 未检测到零云

温度 & 天气

温度 4 °C
露点 4 °C
相对湿度 100%
风寒 -1 °C
Kp-index 4 (0-9)

白天

日出
06:56 (6:29)
中午
12:24
日落
17:52

小工具

你想在你的网站上有一个关于Orupgaard Flyveplads的当前航空天气(METAR)的小部件吗?

显示HTML代码
?>